Time;durP1;ratioP1;P1;durP2;ratioP2;P2;SDS_P1;SDS_P2;PMS_P1;PMS_P2;Temp;Humidity;BMP_temperature;BMP_pressure;BME280_temperature;BME280_humidity;BME280_pressure;Samples;Min_cycle;Max_cycle;Signal;HPM_P1;HPM_P2
2021/05/14 00:00:26;;;;;;;4.70;2.60;;;13.30;69.90;;;;;;4991616;28;20564;-72
2021/05/14 00:02:52;;;;;;;3.80;3.10;;;13.30;69.60;;;;;;4992731;28;20549;-72
2021/05/14 00:05:18;;;;;;;3.30;2.17;;;13.40;69.70;;;;;;4992725;28;20408;-73
2021/05/14 00:07:44;;;;;;;3.37;2.27;;;13.40;69.40;;;;;;4992658;28;20410;-72
2021/05/14 00:10:11;;;;;;;2.90;1.80;;;13.40;69.30;;;;;;4992388;28;20434;-72
2021/05/14 00:12:37;;;;;;;3.23;2.27;;;13.40;69.20;;;;;;4992542;28;20633;-72
2021/05/14 00:15:04;;;;;;;5.10;2.00;;;13.50;69.20;;;;;;4992318;28;20457;-71
2021/05/14 00:17:29;;;;;;;3.83;2.10;;;13.50;69.10;;;;;;4993134;28;20225;-72
2021/05/14 00:19:55;;;;;;;3.83;2.33;;;13.50;69.10;;;;;;4992777;28;20407;-71
2021/05/14 00:22:21;;;;;;;3.47;2.17;;;13.50;70.00;;;;;;4975805;28;20267;-72
2021/05/14 00:24:47;;;;;;;3.20;2.30;;;13.50;69.30;;;;;;4976311;28;20174;-72
2021/05/14 00:27:13;;;;;;;2.70;1.80;;;13.50;69.40;;;;;;4996265;28;20187;-72
2021/05/14 00:29:39;;;;;;;3.70;2.47;;;13.40;69.40;;;;;;4975435;28;20457;-72
2021/05/14 00:32:05;;;;;;;4.63;2.07;;;13.40;69.60;;;;;;5008221;28;20457;-72
2021/05/14 00:34:30;;;;;;;2.10;1.63;;;13.40;69.80;;;;;;4989622;28;20218;-71
2021/05/14 00:36:56;;;;;;;5.00;1.97;;;13.30;69.60;;;;;;4991826;28;20928;-73
2021/05/14 00:39:22;;;;;;;5.70;2.07;;;13.20;69.90;;;;;;4991453;28;20183;-72
2021/05/14 00:41:47;;;;;;;4.60;2.73;;;13.20;70.30;;;;;;4991779;28;20223;-72
2021/05/14 00:44:32;;;;;;;2.50;1.83;;;13.10;70.40;;;;;;4991724;28;20188;-72
2021/05/14 00:46:59;;;;;;;4.27;2.10;;;13.00;70.80;;;;;;4991667;28;20164;-72
2021/05/14 00:49:25;;;;;;;5.57;2.13;;;13.00;70.90;;;;;;4990729;28;20934;-71
2021/05/14 00:51:52;;;;;;;4.13;2.00;;;13.00;71.20;;;;;;4991640;28;20399;-72
2021/05/14 00:54:18;;;;;;;3.53;1.73;;;13.00;71.30;;;;;;4991693;28;20449;-72
2021/05/14 00:56:44;;;;;;;3.03;2.30;;;13.00;71.20;;;;;;4991180;28;20421;-73
2021/05/14 00:59:10;;;;;;;2.70;2.07;;;13.00;71.10;;;;;;4974149;28;20427;-72
2021/05/14 01:01:36;;;;;;;2.67;2.00;;;13.00;71.00;;;;;;4958005;28;20172;-72
2021/05/14 01:04:02;;;;;;;3.73;2.07;;;13.00;70.90;;;;;;4991717;28;20473;-71
2021/05/14 01:06:28;;;;;;;2.80;2.03;;;13.00;71.00;;;;;;4973516;28;20184;-71
2021/05/14 01:08:57;;;;;;;3.50;2.17;;;13.00;71.10;;;;;;4954760;28;20423;-70
2021/05/14 01:11:23;;;;;;;4.10;2.80;;;13.00;71.20;;;;;;4954525;28;20542;-71
2021/05/14 01:13:48;;;;;;;3.80;2.30;;;13.00;71.10;;;;;;4970568;28;20550;-73
2021/05/14 01:16:14;;;;;;;4.27;2.97;;;13.00;71.10;;;;;;4971794;28;20535;-72
2021/05/14 01:18:40;;;;;;;4.30;3.83;;;12.90;71.10;;;;;;4959022;28;20186;-71
2021/05/14 01:21:05;;;;;;;3.10;2.70;;;12.90;71.00;;;;;;4990946;28;20701;-72
2021/05/14 01:23:31;;;;;;;4.70;3.40;;;12.80;71.20;;;;;;4973398;28;20191;-72
2021/05/14 01:25:57;;;;;;;4.23;3.50;;;12.70;71.50;;;;;;4991395;28;20230;-72
2021/05/14 01:28:22;;;;;;;3.67;2.80;;;12.70;72.60;;;;;;4991079;28;20192;-72
2021/05/14 01:30:48;;;;;;;4.97;3.00;;;12.70;72.30;;;;;;4979277;28;20168;-72
2021/05/14 01:33:14;;;;;;;3.73;2.93;;;12.60;72.10;;;;;;4990700;28;20231;-72
2021/05/14 01:35:40;;;;;;;4.60;3.70;;;12.60;72.50;;;;;;4990420;28;20183;-72
2021/05/14 01:38:07;;;;;;;3.83;3.20;;;12.60;72.60;;;;;;4990479;28;20240;-72
2021/05/14 01:40:36;;;;;;;5.13;3.40;;;12.50;72.70;;;;;;4990899;28;20422;-71
2021/05/14 01:43:02;;;;;;;3.10;2.53;;;12.50;72.90;;;;;;4990422;28;20474;-73
2021/05/14 01:45:28;;;;;;;3.60;2.53;;;12.50;72.80;;;;;;4991262;28;20458;-71
2021/05/14 01:47:54;;;;;;;2.50;2.27;;;12.50;72.80;;;;;;4973211;28;20419;-72
2021/05/14 01:50:20;;;;;;;4.60;2.40;;;12.40;72.80;;;;;;4990495;28;20503;-72
2021/05/14 01:52:46;;;;;;;4.47;3.00;;;12.40;73.00;;;;;;4972898;28;20258;-72
2021/05/14 01:55:12;;;;;;;4.07;3.10;;;12.40;72.60;;;;;;4991137;28;20179;-72
2021/05/14 01:57:38;;;;;;;3.10;2.23;;;12.30;72.50;;;;;;4990134;28;20552;-71
2021/05/14 02:00:06;;;;;;;3.53;2.40;;;12.30;72.60;;;;;;4972979;28;20422;-71
2021/05/14 02:02:32;;;;;;;3.07;2.63;;;12.30;72.60;;;;;;4989159;28;20605;-72
2021/05/14 02:04:57;;;;;;;8.63;2.30;;;12.20;72.50;;;;;;4973018;28;20425;-71
2021/05/14 02:07:23;;;;;;;3.73;2.60;;;12.20;72.40;;;;;;4990685;28;20347;-71
2021/05/14 02:09:51;;;;;;;3.47;2.77;;;12.20;72.30;;;;;;4990709;28;20251;-74
2021/05/14 02:12:17;;;;;;;2.90;2.00;;;12.20;72.00;;;;;;4990079;28;20317;-70
2021/05/14 02:14:43;;;;;;;2.80;2.20;;;12.20;71.90;;;;;;4990734;28;20434;-72
2021/05/14 02:17:08;;;;;;;3.17;2.70;;;12.20;71.60;;;;;;4990148;28;20175;-72
2021/05/14 02:19:34;;;;;;;5.60;2.50;;;12.20;71.80;;;;;;4990493;28;20175;-72
2021/05/14 02:22:00;;;;;;;2.90;2.03;;;12.20;71.50;;;;;;4990174;28;20183;-71
2021/05/14 02:24:25;;;;;;;2.67;2.30;;;12.10;71.30;;;;;;4990248;28;20275;-72
2021/05/14 02:26:51;;;;;;;3.10;2.47;;;12.10;71.50;;;;;;4989914;28;20279;-72
2021/05/14 02:29:17;;;;;;;3.90;3.10;;;12.10;71.60;;;;;;4990443;28;20164;-72
2021/05/14 02:31:42;;;;;;;5.70;2.50;;;12.00;71.30;;;;;;4990242;28;20198;-72
2021/05/14 02:34:08;;;;;;;3.50;3.00;;;12.00;71.40;;;;;;4956460;28;20618;-72
2021/05/14 02:36:34;;;;;;;4.63;4.23;;;12.00;71.30;;;;;;4990075;28;20507;-72
2021/05/14 02:38:59;;;;;;;4.13;3.73;;;12.00;71.00;;;;;;4990131;28;20200;-72
2021/05/14 02:41:25;;;;;;;3.93;3.53;;;12.00;71.20;;;;;;4989673;28;20242;-72
2021/05/14 02:43:50;;;;;;;4.30;3.40;;;12.00;71.00;;;;;;4972571;28;20210;-72
2021/05/14 02:46:16;;;;;;;4.47;4.07;;;11.90;70.90;;;;;;4990116;28;20468;-71
2021/05/14 02:48:42;;;;;;;4.87;3.00;;;11.90;71.00;;;;;;4972504;28;20184;-73
2021/05/14 02:51:07;;;;;;;4.37;3.20;;;11.90;71.20;;;;;;4990532;28;20191;-73
2021/05/14 02:53:34;;;;;;;3.90;3.53;;;11.90;71.00;;;;;;4972391;28;20554;-72
2021/05/14 02:55:59;;;;;;;4.77;3.73;;;11.90;70.90;;;;;;4988779;28;20259;-72
2021/05/14 02:58:25;;;;;;;3.83;3.43;;;11.90;71.10;;;;;;4989906;28;20831;-72
2021/05/14 03:00:50;;;;;;;5.67;3.00;;;12.00;71.10;;;;;;4972609;28;20515;-73
2021/05/14 03:03:16;;;;;;;9.37;3.10;;;12.00;71.00;;;;;;4989931;28;20254;-72
2021/05/14 03:05:42;;;;;;;4.17;3.07;;;12.00;70.80;;;;;;4990390;28;20172;-73
2021/05/14 03:08:07;;;;;;;4.47;2.90;;;12.00;70.90;;;;;;4972683;28;20168;-73
2021/05/14 03:10:33;;;;;;;4.07;3.30;;;12.00;71.20;;;;;;4990361;28;20510;-72
2021/05/14 03:12:59;;;;;;;4.30;3.03;;;12.00;70.30;;;;;;4973177;28;20428;-72
2021/05/14 03:15:25;;;;;;;5.03;3.30;;;12.00;70.00;;;;;;4993675;28;20274;-73
2021/05/14 03:17:50;;;;;;;4.90;2.80;;;12.00;69.90;;;;;;4993590;28;20285;-72
2021/05/14 03:20:16;;;;;;;3.50;2.87;;;11.90;69.50;;;;;;4975918;28;20211;-71
2021/05/14 03:22:42;;;;;;;3.50;2.60;;;11.80;69.90;;;;;;4993553;28;20192;-72
2021/05/14 03:25:10;;;;;;;5.20;3.30;;;11.80;69.80;;;;;;4975709;28;20171;-73
2021/05/14 03:27:36;;;;;;;2.93;2.60;;;11.80;69.90;;;;;;4993435;28;20761;-72
2021/05/14 03:30:05;;;;;;;3.73;3.10;;;11.80;70.10;;;;;;4975602;28;20522;-72
2021/05/14 03:32:30;;;;;;;6.10;2.90;;;11.80;69.90;;;;;;4992976;28;20473;-72
2021/05/14 03:34:56;;;;;;;4.33;2.93;;;11.70;70.30;;;;;;4993203;28;20439;-73
2021/05/14 03:37:22;;;;;;;3.67;3.00;;;11.60;69.50;;;;;;4993414;28;20179;-72
2021/05/14 03:39:51;;;;;;;4.20;3.10;;;11.60;69.90;;;;;;4993020;28;20160;-73
2021/05/14 03:42:23;;;;;;;3.17;2.47;;;11.50;69.70;;;;;;4975153;28;20176;-73
2021/05/14 03:44:50;;;;;;;4.17;2.50;;;11.50;69.60;;;;;;4992915;28;20417;-73
2021/05/14 03:47:19;;;;;;;3.80;2.83;;;11.50;69.80;;;;;;4992841;28;20426;-73
2021/05/14 03:49:45;;;;;;;4.03;2.50;;;11.40;69.40;;;;;;4975556;28;20472;-72
2021/05/14 03:52:12;;;;;;;4.53;3.40;;;11.40;69.60;;;;;;4975413;28;20508;-72
2021/05/14 03:54:40;;;;;;;4.27;3.27;;;11.30;69.30;;;;;;4992663;28;20199;-72
2021/05/14 03:57:06;;;;;;;4.70;3.37;;;11.30;69.20;;;;;;4992667;28;20854;-73
2021/05/14 03:59:32;;;;;;;11.53;3.33;;;11.20;69.40;;;;;;4993428;28;20746;-71
2021/05/14 04:01:59;;;;;;;4.90;3.10;;;11.20;69.50;;;;;;4993224;28;20413;-73
2021/05/14 04:04:25;;;;;;;6.43;2.70;;;11.20;69.60;;;;;;4974933;28;20856;-73
2021/05/14 04:06:52;;;;;;;3.43;2.67;;;11.20;69.40;;;;;;4992439;28;20410;-73
2021/05/14 04:09:24;;;;;;;5.37;2.80;;;11.30;69.00;;;;;;4992196;28;20422;-73
2021/05/14 04:14:32;;;;;;;3.90;2.80;;;11.30;68.90;;;;;;4974617;28;20427;-72
2021/05/14 04:16:59;;;;;;;6.30;2.83;;;11.30;68.80;;;;;;4992218;28;20418;-72
2021/05/14 04:19:25;;;;;;;3.97;2.30;;;11.40;68.40;;;;;;4974211;28;20486;-72
2021/05/14 04:21:55;;;;;;;3.30;1.93;;;11.40;68.00;;;;;;4974531;28;20455;-72
2021/05/14 04:24:22;;;;;;;3.90;2.40;;;11.40;68.10;;;;;;4974217;28;20426;-71
2021/05/14 04:26:49;;;;;;;3.77;2.07;;;11.50;67.70;;;;;;4991865;28;20405;-72
2021/05/14 04:29:15;;;;;;;8.00;2.57;;;11.60;67.50;;;;;;4991803;28;20426;-72
2021/05/14 04:31:42;;;;;;;4.80;2.93;;;11.70;67.00;;;;;;4992059;28;20411;-72
2021/05/14 04:34:08;;;;;;;5.63;3.07;;;11.80;66.50;;;;;;4991695;28;21003;-72
2021/05/14 04:36:34;;;;;;;5.17;2.13;;;11.80;66.20;;;;;;4991199;28;20403;-73
2021/05/14 04:39:00;;;;;;;5.23;2.63;;;11.90;65.30;;;;;;4974186;28;20410;-72
2021/05/14 04:41:25;;;;;;;6.53;2.43;;;11.80;65.10;;;;;;4992275;28;20667;-72
2021/05/14 04:43:51;;;;;;;4.40;2.07;;;11.80;64.10;;;;;;4973958;28;20191;-73
2021/05/14 04:46:17;;;;;;;4.37;2.53;;;11.80;64.40;;;;;;4991739;28;20606;-73
2021/05/14 04:48:42;;;;;;;3.13;2.00;;;11.80;64.70;;;;;;4991583;28;20172;-71
2021/05/14 04:51:08;;;;;;;11.73;2.73;;;11.80;64.20;;;;;;4991594;28;20187;-72
2021/05/14 04:53:36;;;;;;;3.93;2.77;;;11.90;64.30;;;;;;4973726;28;20379;-72
2021/05/14 04:56:03;;;;;;;3.90;2.70;;;11.90;63.20;;;;;;4991165;28;20465;-72
2021/05/14 04:58:29;;;;;;;2.63;2.20;;;11.90;63.60;;;;;;4991279;28;20430;-72
2021/05/14 05:00:54;;;;;;;4.03;2.37;;;11.90;63.30;;;;;;4991563;28;20418;-73
2021/05/14 05:03:20;;;;;;;2.60;2.40;;;11.80;63.10;;;;;;4991515;28;20290;-72
2021/05/14 05:05:48;;;;;;;4.73;2.47;;;12.00;63.40;;;;;;4991174;28;20219;-72
2021/05/14 05:08:13;;;;;;;3.93;2.50;;;12.00;63.00;;;;;;4992556;28;20403;-72
2021/05/14 05:10:39;;;;;;;4.80;2.40;;;12.10;62.50;;;;;;4992952;28;20492;-72
2021/05/14 05:13:05;;;;;;;3.00;2.10;;;12.10;62.30;;;;;;5000245;28;20207;-72
2021/05/14 05:15:30;;;;;;;4.10;2.07;;;12.20;62.30;;;;;;5001222;28;20172;-71
2021/05/14 05:17:56;;;;;;;6.23;2.60;;;12.20;61.90;;;;;;5000581;28;20163;-72
2021/05/14 05:20:22;;;;;;;12.13;3.40;;;12.30;61.70;;;;;;4993402;28;20243;-73
2021/05/14 05:22:48;;;;;;;3.93;2.07;;;12.40;61.60;;;;;;4973653;28;20262;-72
2021/05/14 05:25:14;;;;;;;3.93;2.90;;;12.50;61.10;;;;;;4990737;28;20251;-73
2021/05/14 05:27:40;;;;;;;3.27;1.93;;;12.60;60.60;;;;;;4991222;28;20167;-73
2021/05/14 05:30:06;;;;;;;5.70;2.47;;;12.70;60.00;;;;;;4990706;28;20422;-73
2021/05/14 05:32:32;;;;;;;3.00;2.20;;;12.70;59.80;;;;;;4991002;28;20450;-71
2021/05/14 05:34:58;;;;;;;3.80;2.30;;;12.80;59.60;;;;;;4990000;28;20442;-71
2021/05/14 05:37:24;;;;;;;3.53;2.03;;;13.00;59.30;;;;;;4989395;28;20176;-72
2021/05/14 05:39:50;;;;;;;4.00;2.67;;;13.10;58.80;;;;;;4957236;28;20172;-71
2021/05/14 05:42:15;;;;;;;7.90;2.93;;;13.20;58.00;;;;;;4989705;28;20426;-72
2021/05/14 05:44:41;;;;;;;3.67;2.10;;;13.20;58.20;;;;;;4990617;28;20647;-72
2021/05/14 05:47:07;;;;;;;4.33;2.90;;;13.30;58.20;;;;;;4973390;28;20179;-72
2021/05/14 05:49:33;;;;;;;12.57;7.77;;;13.50;57.90;;;;;;4990583;28;20188;-73
2021/05/14 05:51:58;;;;;;;4.07;3.10;;;13.60;56.70;;;;;;4991158;28;20602;-72
2021/05/14 05:54:24;;;;;;;5.03;2.40;;;13.70;56.70;;;;;;4990893;28;20488;-72
2021/05/14 05:56:50;;;;;;;5.17;2.27;;;13.90;57.30;;;;;;4990780;28;20218;-72
2021/05/14 05:59:20;;;;;;;4.07;2.23;;;14.10;55.70;;;;;;4973052;28;20223;-71
2021/05/14 06:01:46;;;;;;;5.03;2.40;;;14.50;55.50;;;;;;4990861;28;20454;-71
2021/05/14 06:04:12;;;;;;;5.43;2.40;;;15.20;54.10;;;;;;4957227;28;20975;-72
2021/05/14 06:06:38;;;;;;;3.63;2.20;;;15.70;52.60;;;;;;4972487;28;20564;-73
2021/05/14 06:09:04;;;;;;;3.47;2.20;;;16.30;51.30;;;;;;4984016;28;20420;-73
2021/05/14 06:11:30;;;;;;;4.07;2.70;;;17.00;49.40;;;;;;4970894;28;20164;-73
2021/05/14 06:13:55;;;;;;;3.00;2.30;;;17.90;48.40;;;;;;4971022;28;20451;-72
2021/05/14 06:16:21;;;;;;;3.27;2.03;;;18.60;46.70;;;;;;4977358;28;20168;-73
2021/05/14 06:18:50;;;;;;;3.70;1.83;;;18.60;44.80;;;;;;4991101;28;20167;-72
2021/05/14 06:21:16;;;;;;;2.73;1.60;;;17.90;44.70;;;;;;4989553;28;20160;-70
2021/05/14 06:23:42;;;;;;;3.70;1.87;;;17.20;46.40;;;;;;4983417;28;20819;-76
2021/05/14 06:26:07;;;;;;;6.50;2.17;;;16.70;47.00;;;;;;4991311;28;20490;-76
2021/05/14 06:28:33;;;;;;;3.00;1.97;;;16.40;48.20;;;;;;4991628;28;20629;-76
2021/05/14 06:30:59;;;;;;;4.37;2.10;;;16.30;49.00;;;;;;4991245;28;20214;-76
2021/05/14 06:33:27;;;;;;;3.00;2.30;;;16.40;50.20;;;;;;4990148;28;20199;-76
2021/05/14 06:35:53;;;;;;;8.33;2.70;;;16.40;50.70;;;;;;4973201;28;20207;-76
2021/05/14 06:38:19;;;;;;;3.17;2.07;;;16.30;50.40;;;;;;4990419;28;20430;-75
2021/05/14 06:40:44;;;;;;;6.70;3.73;;;16.30;49.90;;;;;;4990909;28;20415;-76
2021/05/14 06:43:10;;;;;;;2.87;1.80;;;16.40;49.80;;;;;;4992051;28;20204;-77
2021/05/14 06:45:36;;;;;;;4.70;2.17;;;16.30;49.30;;;;;;4978206;28;20170;-76
2021/05/14 06:48:03;;;;;;;5.93;1.87;;;16.50;49.40;;;;;;4981289;28;20175;-76
2021/05/14 06:50:29;;;;;;;5.03;1.87;;;16.80;49.10;;;;;;4997258;28;20175;-77
2021/05/14 06:52:55;;;;;;;4.70;1.97;;;17.10;48.50;;;;;;4999270;28;20524;-79
2021/05/14 06:55:21;;;;;;;7.37;3.87;;;17.40;48.10;;;;;;4987210;28;20939;-79
2021/05/14 06:57:47;;;;;;;4.67;2.40;;;17.60;47.70;;;;;;4983266;28;20164;-78
2021/05/14 07:00:13;;;;;;;6.13;2.67;;;17.90;47.50;;;;;;5001896;28;20180;-77
2021/05/14 07:02:38;;;;;;;6.13;2.60;;;18.30;46.90;;;;;;4999789;28;20274;-77
2021/05/14 07:05:05;;;;;;;7.73;2.50;;;18.40;45.60;;;;;;5000192;28;20455;-78
2021/05/14 07:07:31;;;;;;;9.30;5.90;;;18.50;45.60;;;;;;4982636;28;20176;-80
2021/05/14 07:09:57;;;;;;;5.30;2.83;;;18.60;45.40;;;;;;4984860;28;20452;-79
2021/05/14 07:15:39;;;;;;;6.23;2.60;;;19.40;45.20;;;;;;4992724;28;20490;-79
2021/05/14 07:26:49;;;;;;;4.17;2.00;;;21.10;41.10;;;;;;4881983;29;20452;-80
2021/05/14 07:29:23;;;;;;;5.00;2.17;;;21.70;41.00;;;;;;4957496;28;20428;-79
2021/05/14 07:31:49;;;;;;;2.50;1.63;;;22.40;39.60;;;;;;4969602;28;20399;-79
2021/05/14 07:34:15;;;;;;;6.33;3.00;;;23.10;37.90;;;;;;5003375;28;20192;-80
2021/05/14 07:36:43;;;;;;;7.23;2.60;;;23.70;37.20;;;;;;4967839;28;20290;-80
2021/05/14 07:39:08;;;;;;;4.27;2.03;;;24.40;36.50;;;;;;4999678;28;20281;-80
2021/05/14 07:41:35;;;;;;;2.20;1.77;;;25.70;34.40;;;;;;4965155;28;20489;-80
2021/05/14 07:44:20;;;;;;;4.53;2.13;;;26.90;32.90;;;;;;5065863;23;20577;-80
2021/05/14 07:47:02;;;;;;;11.73;2.60;;;28.10;30.60;;;;;;4985194;28;20476;-81
2021/05/14 07:50:11;;;;;;;6.77;2.00;;;29.60;29.40;;;;;;4967646;28;20419;-80
2021/05/14 07:52:57;;;;;;;3.30;1.93;;;31.10;27.70;;;;;;4963895;28;20529;-79
2021/05/14 07:59:02;;;;;;;3.90;1.57;;;32.30;25.40;;;;;;5001392;28;20468;-81
2021/05/14 08:01:39;;;;;;;3.40;2.00;;;31.40;25.70;;;;;;4967646;28;20427;-81
2021/05/14 08:12:23;;;;;;;3.77;1.90;;;29.00;27.60;;;;;;4918428;28;20433;-80
2021/05/14 08:14:57;;;;;;;2.30;1.50;;;28.50;27.60;;;;;;5001638;28;20427;-82
2021/05/14 08:18:17;;;;;;;4.30;2.23;;;28.10;27.80;;;;;;4992790;28;20417;-80
2021/05/14 08:20:55;;;;;;;2.10;1.50;;;28.70;28.00;;;;;;4983872;28;20462;-81
2021/05/14 08:23:33;;;;;;;6.00;3.40;;;29.80;26.50;;;;;;5007631;28;21016;-78
2021/05/14 08:26:38;;;;;;;2.13;1.80;;;30.40;26.00;;;;;;4966630;28;20420;-80
2021/05/14 08:30:05;;;;;;;3.10;1.90;;;31.30;25.50;;;;;;4973125;28;20427;-81
2021/05/14 09:18:33;;;;;;;3.40;2.00;;;27.60;27.50;;;;;;4882026;29;20435;-76
2021/05/14 09:21:07;;;;;;;2.60;1.80;;;27.10;29.10;;;;;;4892382;29;20410;-75
2021/05/14 09:23:40;;;;;;;2.83;1.60;;;28.50;28.00;;;;;;4935321;28;20451;-74
2021/05/14 09:26:08;;;;;;;6.77;3.37;;;30.50;26.30;;;;;;4951021;28;20848;-73
2021/05/14 09:28:43;;;;;;;3.07;2.20;;;32.10;24.40;;;;;;4976413;28;20431;-75
2021/05/14 09:31:17;;;;;;;2.67;1.20;;;33.20;23.40;;;;;;4957570;28;20465;-75
2021/05/14 09:33:47;;;;;;;2.07;1.77;;;34.10;22.40;;;;;;4967285;28;20501;-75
2021/05/14 09:36:24;;;;;;;3.27;2.00;;;35.10;20.80;;;;;;4974968;28;20393;-75
2021/05/14 09:38:54;;;;;;;3.00;1.80;;;35.50;20.30;;;;;;4975152;28;20434;-75
2021/05/14 09:41:38;;;;;;;6.23;1.80;;;35.70;19.70;;;;;;4976917;28;20397;-76
2021/05/14 09:44:20;;;;;;;3.03;1.95;;;35.10;19.80;;;;;;4956401;28;20419;-77
2021/05/14 09:47:29;;;;;;;2.20;1.58;;;35.20;20.20;;;;;;4966258;29;20172;-77
2021/05/14 09:50:55;;;;;;;3.63;1.73;;;34.60;20.50;;;;;;4957328;28;20171;-77
2021/05/14 09:53:31;;;;;;;5.53;2.55;;;34.80;20.80;;;;;;4964863;28;20199;-75
2021/05/14 09:56:03;;;;;;;18.85;17.20;;;34.80;20.50;;;;;;4984022;28;20684;-78
2021/05/14 09:58:34;;;;;;;4.35;1.70;;;34.30;20.70;;;;;;4966492;28;20281;-77
2021/05/14 10:01:03;;;;;;;2.53;2.07;;;33.60;21.10;;;;;;4983209;28;20415;-77
2021/05/14 10:03:37;;;;;;;2.80;2.27;;;32.10;22.10;;;;;;4948282;29;20459;-76
2021/05/14 10:06:15;;;;;;;3.63;1.80;;;30.40;23.90;;;;;;4949769;28;20419;-78
2021/05/14 10:08:57;;;;;;;1.60;1.10;;;28.90;25.10;;;;;;4975519;28;20440;-76
2021/05/14 10:11:49;;;;;;;4.90;1.77;;;27.30;26.80;;;;;;4968481;28;20491;-78
2021/05/14 10:14:25;;;;;;;2.80;1.67;;;26.20;28.10;;;;;;4941484;28;20549;-78
2021/05/14 10:17:04;;;;;;;2.87;2.13;;;25.10;29.30;;;;;;4968238;28;20506;-77
2021/05/14 10:19:37;;;;;;;2.73;2.20;;;24.20;30.70;;;;;;5022871;23;20438;-77
2021/05/14 10:22:04;;;;;;;3.20;1.40;;;23.50;31.90;;;;;;4982554;28;20263;-78
2021/05/14 10:25:08;;;;;;;2.10;1.30;;;23.10;32.60;;;;;;4992964;28;20430;-79
2021/05/14 10:28:09;;;;;;;2.03;1.40;;;22.80;33.60;;;;;;4945133;28;20442;-77
2021/05/14 10:30:35;;;;;;;2.17;1.30;;;22.90;34.30;;;;;;4941073;29;20440;-78
2021/05/14 10:33:03;;;;;;;2.53;0.97;;;22.90;34.60;;;;;;4953205;29;20459;-77
2021/05/14 10:35:47;;;;;;;4.80;1.60;;;23.30;34.10;;;;;;4953129;29;20427;-77
2021/05/14 10:38:13;;;;;;;2.03;1.40;;;24.80;32.60;;;;;;4935028;29;20511;-76
2021/05/14 10:40:47;;;;;;;9.73;2.80;;;26.70;29.80;;;;;;4952040;29;20437;-79
2021/05/14 10:43:51;;;;;;;5.63;1.40;;;27.40;28.60;;;;;;4971996;29;20171;-77
2021/05/14 10:46:35;;;;;;;1.73;1.00;;;26.90;28.90;;;;;;4956289;29;20487;-78
2021/05/14 10:49:40;;;;;;;5.17;1.30;;;26.10;28.30;;;;;;4956387;29;20452;-77
2021/05/14 10:52:06;;;;;;;2.33;1.20;;;25.30;29.80;;;;;;4954250;29;20439;-76
2021/05/14 10:54:42;;;;;;;4.60;1.57;;;24.60;30.40;;;;;;4955311;29;20413;-75
2021/05/14 10:57:15;;;;;;;3.07;1.20;;;23.90;32.20;;;;;;4925539;29;20416;-76
2021/05/14 10:59:49;;;;;;;5.33;1.83;;;23.60;32.90;;;;;;4942105;29;20487;-76
2021/05/14 11:02:29;;;;;;;5.50;2.33;;;23.40;33.70;;;;;;4926648;29;20420;-77
2021/05/14 11:05:01;;;;;;;12.33;6.20;;;23.20;34.20;;;;;;4932539;29;20169;-77
2021/05/14 11:07:30;;;;;;;9.50;6.27;;;22.80;34.70;;;;;;4963701;29;20424;-79
2021/05/14 11:10:14;;;;;;;3.30;1.57;;;22.40;35.40;;;;;;4930532;29;20454;-77
2021/05/14 11:12:49;;;;;;;2.23;1.63;;;21.60;38.20;;;;;;4960970;29;20759;-77
2021/05/14 11:15:14;;;;;;;2.23;1.20;;;20.70;41.60;;;;;;4943989;29;20419;-76
2021/05/14 11:18:03;;;;;;;5.57;1.67;;;20.10;42.60;;;;;;4959206;28;20415;-75
2021/05/14 11:20:49;;;;;;;14.30;2.90;;;19.40;45.90;;;;;;4896190;29;20714;-74
2021/05/14 11:23:38;;;;;;;3.50;1.67;;;18.60;51.20;;;;;;4934786;29;20507;-74
2021/05/14 11:26:06;;;;;;;5.30;2.00;;;17.90;52.70;;;;;;4939521;29;20428;-76
2021/05/14 11:28:51;;;;;;;4.40;1.87;;;17.60;54.20;;;;;;4957838;29;20780;-76
2021/05/14 11:31:24;;;;;;;4.90;1.87;;;17.50;56.30;;;;;;4939233;29;20515;-76
2021/05/14 11:34:00;;;;;;;2.53;1.80;;;17.40;57.10;;;;;;4941713;29;20834;-76
2021/05/14 11:36:28;;;;;;;2.47;1.60;;;17.40;57.30;;;;;;4956900;29;20413;-76
2021/05/14 11:38:58;;;;;;;3.33;1.90;;;17.40;56.80;;;;;;4948151;29;20420;-74
2021/05/14 11:41:35;;;;;;;3.27;2.27;;;17.50;56.50;;;;;;4945288;23;20224;-75
2021/05/14 11:44:05;;;;;;;4.77;1.47;;;17.70;55.30;;;;;;4940125;29;20542;-73
2021/05/14 11:46:32;;;;;;;4.93;1.47;;;17.80;54.70;;;;;;4935197;29;20973;-75
2021/05/14 11:49:09;;;;;;;3.50;1.27;;;18.10;54.40;;;;;;4938598;29;20444;-73
2021/05/14 11:51:36;;;;;;;15.27;9.03;;;18.40;53.20;;;;;;4922228;29;20430;-72
2021/05/14 11:54:09;;;;;;;22.50;15.30;;;18.90;52.70;;;;;;4919712;29;20434;-71
2021/05/14 11:56:35;;;;;;;8.03;4.40;;;19.40;50.60;;;;;;4921211;29;20481;-75
2021/05/14 11:59:01;;;;;;;3.37;1.70;;;19.80;50.10;;;;;;4914913;29;20431;-73
2021/05/14 12:01:47;;;;;;;2.03;1.10;;;20.10;50.50;;;;;;4915315;29;20360;-74
2021/05/14 12:04:13;;;;;;;3.43;2.20;;;20.30;49.40;;;;;;4916096;29;20210;-74
2021/05/14 12:06:59;;;;;;;6.03;1.23;;;20.50;48.20;;;;;;4899123;29;20760;-74
2021/05/14 12:09:24;;;;;;;2.80;1.27;;;20.60;46.80;;;;;;5050522;23;20225;-73
2021/05/14 12:11:54;;;;;;;1.73;1.17;;;20.50;45.00;;;;;;4972305;28;20971;-72
2021/05/14 12:14:24;;;;;;;1.50;1.00;;;20.50;45.20;;;;;;4951750;28;20666;-73
2021/05/14 12:16:50;;;;;;;8.33;1.97;;;20.50;44.90;;;;;;4974842;28;20408;-73
2021/05/14 12:19:22;;;;;;;1.30;0.80;;;20.40;45.80;;;;;;4958201;28;20433;-72
2021/05/14 12:21:47;;;;;;;2.43;0.90;;;20.30;45.10;;;;;;4972792;28;20964;-74
2021/05/14 12:24:23;;;;;;;4.80;1.00;;;20.20;44.70;;;;;;4976738;28;20466;-72
2021/05/14 12:27:19;;;;;;;2.17;1.10;;;20.20;44.30;;;;;;4956562;28;20283;-74
2021/05/14 12:30:00;;;;;;;1.70;1.30;;;20.20;43.80;;;;;;4950352;29;20953;-73
2021/05/14 12:32:26;;;;;;;1.53;1.00;;;20.20;43.80;;;;;;4935075;29;20441;-73
2021/05/14 12:34:52;;;;;;;1.33;1.17;;;20.20;42.10;;;;;;4952828;28;20431;-72
2021/05/14 12:37:18;;;;;;;1.83;1.00;;;20.10;42.10;;;;;;4973826;28;20424;-73
2021/05/14 12:39:50;;;;;;;1.70;1.20;;;20.10;41.10;;;;;;4976458;28;20235;-74
2021/05/14 12:42:30;;;;;;;1.20;0.80;;;20.10;40.30;;;;;;4967932;28;20223;-75
2021/05/14 12:45:00;;;;;;;4.83;1.53;;;20.00;41.10;;;;;;4958875;28;20412;-73
2021/05/14 12:47:28;;;;;;;1.40;0.90;;;20.00;41.40;;;;;;4957660;28;20416;-73
2021/05/14 12:49:59;;;;;;;3.00;1.30;;;20.00;40.60;;;;;;4956606;28;20487;-75
2021/05/14 12:52:37;;;;;;;1.30;0.93;;;20.00;40.80;;;;;;4974284;28;20738;-74
2021/05/14 12:55:17;;;;;;;3.93;1.00;;;20.00;40.70;;;;;;4971213;28;20462;-73
2021/05/14 12:57:44;;;;;;;3.67;0.70;;;20.00;39.40;;;;;;4954455;28;20427;-73
2021/05/14 13:00:17;;;;;;;4.67;2.27;;;20.00;37.40;;;;;;4974171;28;20451;-73
2021/05/14 13:03:07;;;;;;;2.13;1.30;;;19.90;36.70;;;;;;4956180;28;20455;-75
2021/05/14 13:05:39;;;;;;;16.00;8.50;;;19.70;37.00;;;;;;4977155;28;20459;-73
2021/05/14 13:08:10;;;;;;;2.17;0.80;;;19.70;37.30;;;;;;4951517;28;20512;-73
2021/05/14 13:10:48;;;;;;;1.80;1.07;;;19.60;37.40;;;;;;4973501;28;20459;-74
2021/05/14 13:13:27;;;;;;;2.87;1.80;;;19.50;37.80;;;;;;4941388;29;20412;-74
2021/05/14 13:15:55;;;;;;;2.17;1.00;;;19.60;37.70;;;;;;4954591;29;20490;-75
2021/05/14 13:18:30;;;;;;;3.00;0.80;;;19.50;37.40;;;;;;4953991;29;20409;-74
2021/05/14 13:20:58;;;;;;;1.23;0.80;;;19.50;37.90;;;;;;4953697;29;20447;-73
2021/05/14 13:23:24;;;;;;;1.73;0.87;;;19.70;38.00;;;;;;4944987;28;20455;-72
2021/05/14 13:25:51;;;;;;;2.13;0.97;;;19.80;37.60;;;;;;4969212;28;20420;-74
2021/05/14 13:28:18;;;;;;;1.20;0.80;;;19.80;37.60;;;;;;4965840;28;20432;-75
2021/05/14 13:30:46;;;;;;;2.03;0.70;;;19.80;37.50;;;;;;4971001;28;20439;-74
2021/05/14 13:33:12;;;;;;;3.60;0.93;;;19.80;37.50;;;;;;4972636;28;21124;-75
2021/05/14 13:35:38;;;;;;;3.00;1.20;;;19.80;37.60;;;;;;4937718;28;20440;-75
2021/05/14 13:38:18;;;;;;;3.73;2.47;;;19.80;37.40;;;;;;4956631;28;20426;-73
2021/05/14 13:40:45;;;;;;;5.10;3.57;;;19.90;37.90;;;;;;4982833;28;20531;-74
2021/05/14 13:43:11;;;;;;;4.27;1.83;;;20.00;37.50;;;;;;4982893;28;20450;-75
2021/05/14 13:45:43;;;;;;;1.63;1.00;;;20.20;37.30;;;;;;4957384;28;20462;-74
2021/05/14 13:48:14;;;;;;;2.07;1.10;;;20.50;36.90;;;;;;4973713;28;20424;-73
2021/05/14 13:50:43;;;;;;;2.70;1.00;;;20.80;36.30;;;;;;4989656;28;20446;-73
2021/05/14 13:53:09;;;;;;;2.50;1.13;;;21.00;36.00;;;;;;4988871;28;20437;-73
2021/05/14 13:55:35;;;;;;;13.33;6.33;;;21.20;35.30;;;;;;4974525;28;20913;-72
2021/05/14 13:58:03;;;;;;;3.63;1.90;;;21.20;34.90;;;;;;4955778;28;20211;-74
2021/05/14 14:00:31;;;;;;;8.47;3.60;;;21.20;35.50;;;;;;4957896;28;20562;-74
2021/05/14 14:02:57;;;;;;;1.80;0.97;;;21.30;35.90;;;;;;4973388;28;20454;-75
2021/05/14 14:05:23;;;;;;;3.13;0.80;;;21.40;33.80;;;;;;4973498;28;20789;-73
2021/05/14 14:07:49;;;;;;;3.80;1.00;;;21.40;33.30;;;;;;4955463;28;20211;-75
2021/05/14 14:10:14;;;;;;;1.87;0.83;;;21.30;33.40;;;;;;4958472;28;20795;-74
2021/05/14 14:12:40;;;;;;;6.33;1.80;;;21.20;34.30;;;;;;4974855;28;20175;-74